sensor_id;sensor_type;location;lat;lon;timestamp;pressure;altitude;pressure_sealevel;temperature;humidity
36190;BME280;22232;50.914;13.858;2023-02-18T00:01:34;97963.63;;;8.01;100.00
36190;BME280;22232;50.914;13.858;2023-02-18T00:04:02;97956.03;;;8.05;100.00
36190;BME280;22232;50.914;13.858;2023-02-18T00:06:32;97960.53;;;8.04;100.00
36190;BME280;22232;50.914;13.858;2023-02-18T00:09:00;97951.91;;;8.09;100.00
36190;BME280;22232;50.914;13.858;2023-02-18T00:11:30;97962.16;;;8.05;100.00
36190;BME280;22232;50.914;13.858;2023-02-18T00:14:00;97952.75;;;8.10;100.00
36190;BME280;22232;50.914;13.858;2023-02-18T00:16:29;97955.22;;;8.04;100.00
36190;BME280;22232;50.914;13.858;2023-02-18T00:18:58;97950.53;;;8.07;100.00
36190;BME280;22232;50.914;13.858;2023-02-18T00:21:27;97961.97;;;8.07;100.00
36190;BME280;22232;50.914;13.858;2023-02-18T00:23:54;97955.84;;;8.07;100.00
36190;BME280;22232;50.914;13.858;2023-02-18T00:26:22;97954.16;;;8.12;100.00
36190;BME280;22232;50.914;13.858;2023-02-18T00:28:50;97958.84;;;8.17;100.00
36190;BME280;22232;50.914;13.858;2023-02-18T00:31:25;97955.38;;;8.16;100.00
36190;BME280;22232;50.914;13.858;2023-02-18T00:33:53;97959.03;;;8.22;100.00
36190;BME280;22232;50.914;13.858;2023-02-18T00:36:21;97945.13;;;8.20;100.00
36190;BME280;22232;50.914;13.858;2023-02-18T00:38:51;97954.16;;;8.19;100.00
36190;BME280;22232;50.914;13.858;2023-02-18T00:41:21;97958.19;;;8.21;100.00
36190;BME280;22232;50.914;13.858;2023-02-18T00:43:49;97958.44;;;8.20;100.00
36190;BME280;22232;50.914;13.858;2023-02-18T00:46:19;97961.88;;;8.20;100.00
36190;BME280;22232;50.914;13.858;2023-02-18T00:48:47;97964.78;;;8.19;100.00
36190;BME280;22232;50.914;13.858;2023-02-18T00:51:15;97961.28;;;8.18;100.00
36190;BME280;22232;50.914;13.858;2023-02-18T00:53:43;97967.22;;;8.20;100.00
36190;BME280;22232;50.914;13.858;2023-02-18T00:56:11;97956.38;;;8.15;100.00
36190;BME280;22232;50.914;13.858;2023-02-18T00:58:38;97945.56;;;8.17;100.00
36190;BME280;22232;50.914;13.858;2023-02-18T01:01:07;97946.75;;;8.21;100.00
36190;BME280;22232;50.914;13.858;2023-02-18T01:03:36;97945.56;;;8.17;100.00
36190;BME280;22232;50.914;13.858;2023-02-18T01:06:05;97948.84;;;8.19;100.00
36190;BME280;22232;50.914;13.858;2023-02-18T01:08:34;97940.88;;;8.19;100.00
36190;BME280;22232;50.914;13.858;2023-02-18T01:11:02;97951.91;;;8.16;100.00
36190;BME280;22232;50.914;13.858;2023-02-18T01:13:31;97942.09;;;8.16;100.00
36190;BME280;22232;50.914;13.858;2023-02-18T01:15:59;97947.41;;;8.16;100.00
36190;BME280;22232;50.914;13.858;2023-02-18T01:18:29;97949.69;;;8.13;100.00
36190;BME280;22232;50.914;13.858;2023-02-18T01:20:57;97960.50;;;8.11;100.00
36190;BME280;22232;50.914;13.858;2023-02-18T01:23:24;97951.53;;;8.05;100.00
36190;BME280;22232;50.914;13.858;2023-02-18T01:25:52;97950.13;;;7.96;100.00
36190;BME280;22232;50.914;13.858;2023-02-18T01:28:20;97956.03;;;8.05;100.00
36190;BME280;22232;50.914;13.858;2023-02-18T01:30:52;97958.31;;;8.01;100.00
36190;BME280;22232;50.914;13.858;2023-02-18T01:33:20;97955.41;;;8.03;100.00
36190;BME280;22232;50.914;13.858;2023-02-18T01:35:48;97946.63;;;8.02;100.00
36190;BME280;22232;50.914;13.858;2023-02-18T01:38:15;97947.47;;;7.96;100.00
36190;BME280;22232;50.914;13.858;2023-02-18T01:40:49;97932.38;;;7.90;100.00
36190;BME280;22232;50.914;13.858;2023-02-18T01:43:21;97950.19;;;7.83;100.00
36190;BME280;22232;50.914;13.858;2023-02-18T01:45:56;97936.91;;;7.83;100.00
36190;BME280;22232;50.914;13.858;2023-02-18T01:48:45;97942.22;;;7.83;100.00
36190;BME280;22232;50.914;13.858;2023-02-18T01:51:32;97941.00;;;7.79;100.00
36190;BME280;22232;50.914;13.858;2023-02-18T01:54:10;97943.88;;;7.77;100.00
36190;BME280;22232;50.914;13.858;2023-02-18T01:56:43;97944.06;;;7.76;100.00
36190;BME280;22232;50.914;13.858;2023-02-18T01:59:17;97946.53;;;7.77;100.00
36190;BME280;22232;50.914;13.858;2023-02-18T02:01:47;97940.63;;;7.69;100.00
36190;BME280;22232;50.914;13.858;2023-02-18T02:04:15;97944.31;;;7.68;100.00
36190;BME280;22232;50.914;13.858;2023-02-18T02:06:42;97946.34;;;7.66;100.00
36190;BME280;22232;50.914;13.858;2023-02-18T02:09:12;97950.22;;;7.70;100.00
36190;BME280;22232;50.914;13.858;2023-02-18T02:23:38;97959.25;;;7.42;100.00
36190;BME280;22232;50.914;13.858;2023-02-18T02:32:20;97956.19;;;7.45;100.00
36190;BME280;22232;50.914;13.858;2023-02-18T02:35:23;97953.75;;;7.44;100.00
36190;BME280;22232;50.914;13.858;2023-02-18T02:43:33;97951.94;;;7.38;100.00
36190;BME280;22232;50.914;13.858;2023-02-18T02:51:18;97949.69;;;7.41;100.00
36190;BME280;22232;50.914;13.858;2023-02-18T02:53:49;97950.06;;;7.45;100.00
36190;BME280;22232;50.914;13.858;2023-02-18T02:56:19;97954.56;;;7.44;100.00
36190;BME280;22232;50.914;13.858;2023-02-18T02:58:59;97960.69;;;7.45;100.00
36190;BME280;22232;50.914;13.858;2023-02-18T03:02:04;97957.84;;;7.46;100.00
36190;BME280;22232;50.914;13.858;2023-02-18T03:08:04;97957.22;;;7.44;100.00
36190;BME280;22232;50.914;13.858;2023-02-18T03:10:44;97962.34;;;7.46;100.00
36190;BME280;22232;50.914;13.858;2023-02-18T03:16:46;97963.75;;;7.42;100.00
36190;BME280;22232;50.914;13.858;2023-02-18T03:19:22;97962.75;;;7.43;100.00
36190;BME280;22232;50.914;13.858;2023-02-18T03:22:04;97959.47;;;7.47;100.00
36190;BME280;22232;50.914;13.858;2023-02-18T03:24:39;97960.50;;;7.46;100.00
36190;BME280;22232;50.914;13.858;2023-02-18T03:27:11;97956.03;;;7.40;100.00
36190;BME280;22232;50.914;13.858;2023-02-18T03:29:42;97969.28;;;7.40;100.00
36190;BME280;22232;50.914;13.858;2023-02-18T03:32:14;97959.69;;;7.39;100.00
36190;BME280;22232;50.914;13.858;2023-02-18T03:34:48;97969.69;;;7.44;100.00
36190;BME280;22232;50.914;13.858;2023-02-18T03:37:17;97957.44;;;7.43;100.00
36190;BME280;22232;50.914;13.858;2023-02-18T03:39:51;97960.28;;;7.41;100.00
36190;BME280;22232;50.914;13.858;2023-02-18T03:42:28;97964.59;;;7.35;100.00
36190;BME280;22232;50.914;13.858;2023-02-18T03:44:56;97964.38;;;7.37;100.00
36190;BME280;22232;50.914;13.858;2023-02-18T03:47:24;97961.50;;;7.39;100.00
36190;BME280;22232;50.914;13.858;2023-02-18T03:49:51;97959.50;;;7.34;100.00
36190;BME280;22232;50.914;13.858;2023-02-18T03:52:19;97966.22;;;7.30;100.00
36190;BME280;22232;50.914;13.858;2023-02-18T03:54:47;97959.09;;;7.37;100.00
36190;BME280;22232;50.914;13.858;2023-02-18T03:57:14;97964.59;;;7.35;100.00
36190;BME280;22232;50.914;13.858;2023-02-18T03:59:42;97965.19;;;7.38;100.00
36190;BME280;22232;50.914;13.858;2023-02-18T04:02:09;97955.41;;;7.38;100.00
36190;BME280;22232;50.914;13.858;2023-02-18T04:04:37;97951.31;;;7.42;100.00
36190;BME280;22232;50.914;13.858;2023-02-18T04:07:04;97954.59;;;7.31;100.00
36190;BME280;22232;50.914;13.858;2023-02-18T04:09:32;97952.97;;;7.37;100.00
36190;BME280;22232;50.914;13.858;2023-02-18T04:11:59;97959.09;;;7.37;100.00
36190;BME280;22232;50.914;13.858;2023-02-18T04:14:27;97959.91;;;7.38;100.00
36190;BME280;22232;50.914;13.858;2023-02-18T04:16:54;97964.78;;;7.41;100.00
36190;BME280;22232;50.914;13.858;2023-02-18T04:19:22;97960.09;;;7.43;100.00
36190;BME280;22232;50.914;13.858;2023-02-18T04:21:50;97957.63;;;7.41;100.00
36190;BME280;22232;50.914;13.858;2023-02-18T04:24:17;97957.44;;;7.43;100.00
36190;BME280;22232;50.914;13.858;2023-02-18T04:26:45;97959.09;;;7.37;100.00
36190;BME280;22232;50.914;13.858;2023-02-18T04:29:13;97976.63;;;7.38;100.00
36190;BME280;22232;50.914;13.858;2023-02-18T04:31:40;97962.13;;;7.41;100.00
36190;BME280;22232;50.914;13.858;2023-02-18T04:34:08;97966.41;;;7.42;100.00
36190;BME280;22232;50.914;13.858;2023-02-18T04:36:35;97968.47;;;7.40;100.00
36190;BME280;22232;50.914;13.858;2023-02-18T04:39:03;97954.59;;;7.38;100.00
36190;BME280;22232;50.914;13.858;2023-02-18T04:41:30;97958.28;;;7.37;100.00
36190;BME280;22232;50.914;13.858;2023-02-18T04:43:58;97954.78;;;7.36;100.00
36190;BME280;22232;50.914;13.858;2023-02-18T04:46:26;97954.38;;;7.39;100.00
36190;BME280;22232;50.914;13.858;2023-02-18T04:48:54;97943.56;;;7.34;100.00
36190;BME280;22232;50.914;13.858;2023-02-18T04:51:22;97947.66;;;7.37;100.00
36190;BME280;22232;50.914;13.858;2023-02-18T04:53:49;97944.59;;;7.33;100.00
36190;BME280;22232;50.914;13.858;2023-02-18T04:56:17;97944.59;;;7.33;100.00
36190;BME280;22232;50.914;13.858;2023-02-18T04:58:44;97941.53;;;7.29;100.00
36190;BME280;22232;50.914;13.858;2023-02-18T05:01:12;97944.00;;;7.31;100.00
36190;BME280;22232;50.914;13.858;2023-02-18T05:03:39;97950.91;;;7.32;100.00
36190;BME280;22232;50.914;13.858;2023-02-18T05:06:07;97957.66;;;7.28;100.00
36190;BME280;22232;50.914;13.858;2023-02-18T05:08:35;97946.84;;;7.29;100.00
36190;BME280;22232;50.914;13.858;2023-02-18T05:11:07;97954.19;;;7.21;100.00
36190;BME280;22232;50.914;13.858;2023-02-18T05:13:34;97959.69;;;7.26;100.00
36190;BME280;22232;50.914;13.858;2023-02-18T05:16:02;97966.03;;;7.25;100.00
36190;BME280;22232;50.914;13.858;2023-02-18T05:18:30;97961.94;;;7.29;100.00
36190;BME280;22232;50.914;13.858;2023-02-18T05:20:58;97964.59;;;7.29;100.00
36190;BME280;22232;50.914;13.858;2023-02-18T05:23:25;97964.41;;;7.30;100.00
36190;BME280;22232;50.914;13.858;2023-02-18T05:25:53;97958.06;;;7.31;100.00
36190;BME280;22232;50.914;13.858;2023-02-18T05:28:21;97955.59;;;7.30;100.00
36190;BME280;22232;50.914;13.858;2023-02-18T05:30:48;97963.78;;;7.28;100.00
36190;BME280;22232;50.914;13.858;2023-02-18T05:33:16;97955.00;;;7.28;100.00
36190;BME280;22232;50.914;13.858;2023-02-18T05:35:43;97956.63;;;7.29;100.00
36190;BME280;22232;50.914;13.858;2023-02-18T05:38:11;97951.94;;;7.31;100.00
36190;BME280;22232;50.914;13.858;2023-02-18T05:40:38;97949.09;;;7.19;100.00
36190;BME280;22232;50.914;13.858;2023-02-18T05:43:06;97941.34;;;7.18;100.00
36190;BME280;22232;50.914;13.858;2023-02-18T05:45:34;97940.09;;;7.27;100.00
36190;BME280;22232;50.914;13.858;2023-02-18T05:48:02;97936.22;;;7.23;100.00
36190;BME280;22232;50.914;13.858;2023-02-18T05:50:30;97934.78;;;7.27;100.00
36190;BME280;22232;50.914;13.858;2023-02-18T05:52:57;97933.97;;;7.26;100.00
36190;BME280;22232;50.914;13.858;2023-02-18T05:55:25;97927.06;;;7.25;100.00
36190;BME280;22232;50.914;13.858;2023-02-18T05:57:52;97924.41;;;7.25;100.00
36190;BME280;22232;50.914;13.858;2023-02-18T06:00:20;97923.56;;;7.18;100.00
36190;BME280;22232;50.914;13.858;2023-02-18T06:02:47;97922.78;;;7.24;100.00
36190;BME280;22232;50.914;13.858;2023-02-18T06:05:15;97926.22;;;7.31;100.00
36190;BME280;22232;50.914;13.858;2023-02-18T06:07:43;97921.72;;;7.32;100.00
36190;BME280;22232;50.914;13.858;2023-02-18T06:10:10;97922.34;;;7.34;100.00
36190;BME280;22232;50.914;13.858;2023-02-18T06:12:38;97914.78;;;7.38;100.00
36190;BME280;22232;50.914;13.858;2023-02-18T06:15:05;97920.09;;;7.38;100.00
36190;BME280;22232;50.914;13.858;2023-02-18T06:17:33;97919.69;;;7.41;100.00
36190;BME280;22232;50.914;13.858;2023-02-18T06:20:01;97913.34;;;7.42;100.00
36190;BME280;22232;50.914;13.858;2023-02-18T06:22:28;97910.69;;;7.42;100.00
36190;BME280;22232;50.914;13.858;2023-02-18T06:24:56;97927.00;;;7.45;100.00
36190;BME280;22232;50.914;13.858;2023-02-18T06:27:23;97925.59;;;7.43;100.00
36190;BME280;22232;50.914;13.858;2023-02-18T06:29:51;97920.09;;;7.38;100.00
36190;BME280;22232;50.914;13.858;2023-02-18T06:32:18;97913.78;;;7.25;100.00
36190;BME280;22232;50.914;13.858;2023-02-18T06:34:46;97919.09;;;7.19;100.00
36190;BME280;22232;50.914;13.858;2023-02-18T06:37:14;97920.72;;;7.20;100.00
36190;BME280;22232;50.914;13.858;2023-02-18T06:39:41;97921.16;;;7.17;100.00
36190;BME280;22232;50.914;13.858;2023-02-18T06:42:09;97923.19;;;7.15;100.00
36190;BME280;22232;50.914;13.858;2023-02-18T06:44:36;97922.38;;;7.14;100.00
36190;BME280;22232;50.914;13.858;2023-02-18T06:47:04;97926.06;;;7.13;100.00
36190;BME280;22232;50.914;13.858;2023-02-18T06:49:32;97923.59;;;7.11;100.00
36190;BME280;22232;50.914;13.858;2023-02-18T06:51:59;97919.94;;;7.12;100.00
36190;BME280;22232;50.914;13.858;2023-02-18T06:54:26;97920.34;;;7.09;100.00
36190;BME280;22232;50.914;13.858;2023-02-18T06:56:54;97911.53;;;7.09;100.00
36190;BME280;22232;50.914;13.858;2023-02-18T06:59:21;97912.38;;;7.09;100.00
36190;BME280;22232;50.914;13.858;2023-02-18T07:01:49;97904.03;;;7.12;100.00
36190;BME280;22232;50.914;13.858;2023-02-18T07:04:17;97904.59;;;7.15;100.00
36190;BME280;22232;50.914;13.858;2023-02-18T07:06:44;97906.88;;;7.11;100.00
36190;BME280;22232;50.914;13.858;2023-02-18T07:09:12;97904.03;;;7.12;100.00
36190;BME280;22232;50.914;13.858;2023-02-18T07:11:39;97901.16;;;7.14;100.00
36190;BME280;22232;50.914;13.858;2023-02-18T07:14:07;97901.16;;;7.14;100.00
36190;BME280;22232;50.914;13.858;2023-02-18T07:16:34;97908.06;;;7.15;100.00
36190;BME280;22232;50.914;13.858;2023-02-18T07:19:02;97895.25;;;7.19;100.00
36190;BME280;22232;50.914;13.858;2023-02-18T07:21:29;97896.84;;;7.20;100.00
36190;BME280;22232;50.914;13.858;2023-02-18T07:23:57;97896.25;;;7.24;100.00
36190;BME280;22232;50.914;13.858;2023-02-18T07:26:24;97898.50;;;7.27;100.00
36190;BME280;22232;50.914;13.858;2023-02-18T07:28:52;97888.47;;;7.29;100.00
36190;BME280;22232;50.914;13.858;2023-02-18T07:31:19;97875.19;;;7.29;100.00
36190;BME280;22232;50.914;13.858;2023-02-18T07:33:47;97889.91;;;7.32;100.00
36190;BME280;22232;50.914;13.858;2023-02-18T07:36:15;97868.66;;;7.32;100.00
36190;BME280;22232;50.914;13.858;2023-02-18T07:38:42;97879.91;;;7.34;100.00
36190;BME280;22232;50.914;13.858;2023-02-18T07:41:21;97860.09;;;7.30;100.00
36190;BME280;22232;50.914;13.858;2023-02-18T07:43:49;97862.94;;;7.35;100.00
36190;BME280;22232;50.914;13.858;2023-02-18T07:46:17;97861.09;;;7.35;100.00
36190;BME280;22232;50.914;13.858;2023-02-18T07:48:45;97861.72;;;7.38;100.00
36190;BME280;22232;50.914;13.858;2023-02-18T07:51:13;97857.00;;;7.46;100.00
36190;BME280;22232;50.914;13.858;2023-02-18T07:53:41;97850.47;;;7.49;100.00
36190;BME280;22232;50.914;13.858;2023-02-18T07:56:09;97846.16;;;7.48;100.00
36190;BME280;22232;50.914;13.858;2023-02-18T07:58:38;97850.84;;;7.52;100.00
36190;BME280;22232;50.914;13.858;2023-02-18T08:01:09;97847.16;;;7.53;100.00
36190;BME280;22232;50.914;13.858;2023-02-18T08:03:37;97845.09;;;7.62;100.00
36190;BME280;22232;50.914;13.858;2023-02-18T08:06:06;97844.25;;;7.68;100.00
36190;BME280;22232;50.914;13.858;2023-02-18T08:08:34;97833.44;;;7.63;100.00
36190;BME280;22232;50.914;13.858;2023-02-18T08:11:03;97829.91;;;7.76;100.00
36190;BME280;22232;50.914;13.858;2023-02-18T08:13:46;97827.06;;;7.77;100.00
36190;BME280;22232;50.914;13.858;2023-02-18T08:16:16;97819.28;;;7.76;100.00
36190;BME280;22232;50.914;13.858;2023-02-18T08:18:44;97817.25;;;7.78;100.00
36190;BME280;22232;50.914;13.858;2023-02-18T08:21:15;97817.63;;;7.88;100.00
36190;BME280;22232;50.914;13.858;2023-02-18T08:23:43;97814.38;;;7.79;100.00
36190;BME280;22232;50.914;13.858;2023-02-18T08:26:12;97813.13;;;7.89;100.00
36190;BME280;22232;50.914;13.858;2023-02-18T08:28:43;97798.59;;;7.91;100.00
36190;BME280;22232;50.914;13.858;2023-02-18T08:31:19;97795.56;;;7.81;100.00
36190;BME280;22232;50.914;13.858;2023-02-18T08:33:47;97796.16;;;7.90;100.00
36190;BME280;22232;50.914;13.858;2023-02-18T08:36:15;97795.53;;;7.94;100.00
36190;BME280;22232;50.914;13.858;2023-02-18T08:38:43;97787.56;;;7.88;100.00
36190;BME280;22232;50.914;13.858;2023-02-18T08:41:11;97784.91;;;7.88;100.00
36190;BME280;22232;50.914;13.858;2023-02-18T08:43:41;97783.44;;;7.98;100.00
36190;BME280;22232;50.914;13.858;2023-02-18T08:46:10;97771.75;;;7.99;100.00
36190;BME280;22232;50.914;13.858;2023-02-18T08:48:43;97766.44;;;7.99;100.00
36190;BME280;22232;50.914;13.858;2023-02-18T08:51:19;97758.47;;;7.99;100.00
36190;BME280;22232;50.914;13.858;2023-02-18T08:53:47;97749.66;;;8.05;100.00
36190;BME280;22232;50.914;13.858;2023-02-18T08:56:15;97748.91;;;8.23;100.00
36190;BME280;22232;50.914;13.858;2023-02-18T08:58:43;97750.63;;;8.36;100.00
36190;BME280;22232;50.914;13.858;2023-02-18T09:01:12;97738.69;;;8.52;100.00
36190;BME280;22232;50.914;13.858;2023-02-18T09:03:40;97728.88;;;8.53;100.00
36190;BME280;22232;50.914;13.858;2023-02-18T09:06:07;97733.59;;;8.69;100.00
36190;BME280;22232;50.914;13.858;2023-02-18T09:08:35;97736.34;;;8.81;100.00
36190;BME280;22232;50.914;13.858;2023-02-18T09:11:03;97712.19;;;8.82;100.00
36190;BME280;22232;50.914;13.858;2023-02-18T09:13:32;97720.91;;;8.89;100.00
36190;BME280;22232;50.914;13.858;2023-02-18T09:16:02;97715.34;;;8.91;100.00
36190;BME280;22232;50.914;13.858;2023-02-18T09:18:32;97699.25;;;9.04;100.00
36190;BME280;22232;50.914;13.858;2023-02-18T09:21:04;97694.88;;;9.28;100.00
36190;BME280;22232;50.914;13.858;2023-02-18T09:23:32;97695.41;;;9.49;100.00
36190;BME280;22232;50.914;13.858;2023-02-18T09:26:04;97691.72;;;9.61;100.00
36190;BME280;22232;50.914;13.858;2023-02-18T09:28:32;97683.91;;;9.78;100.00
36190;BME280;22232;50.914;13.858;2023-02-18T09:31:11;97680.56;;;9.83;100.00
36190;BME280;22232;50.914;13.858;2023-02-18T09:33:42;97665.13;;;9.73;100.00
36190;BME280;22232;50.914;13.858;2023-02-18T09:36:12;97673.34;;;9.72;100.00
36190;BME280;22232;50.914;13.858;2023-02-18T09:38:39;97673.81;;;9.69;100.00
36190;BME280;22232;50.914;13.858;2023-02-18T09:41:23;97662.00;;;9.76;100.00
36190;BME280;22232;50.914;13.858;2023-02-18T09:43:57;97655.19;;;9.80;100.00
36190;BME280;22232;50.914;13.858;2023-02-18T09:49:34;97652.78;;;10.02;100.00
36190;BME280;22232;50.914;13.858;2023-02-18T09:52:10;97641.22;;;10.08;100.00
36190;BME280;22232;50.914;13.858;2023-02-18T09:54:39;97621.84;;;10.13;100.00
36190;BME280;22232;50.914;13.858;2023-02-18T09:57:17;97625.69;;;10.17;100.00
36190;BME280;22232;50.914;13.858;2023-02-18T09:59:57;97624.03;;;10.16;100.00
36190;BME280;22232;50.914;13.858;2023-02-18T10:02:39;97623.59;;;10.07;100.00
36190;BME280;22232;50.914;13.858;2023-02-18T10:05:12;97627.88;;;10.08;100.00
36190;BME280;22232;50.914;13.858;2023-02-18T10:07:42;97619.44;;;10.11;100.00
36190;BME280;22232;50.914;13.858;2023-02-18T10:10:44;97620.91;;;10.19;100.00
36190;BME280;22232;50.914;13.858;2023-02-18T10:13:19;97614.31;;;10.22;100.00
36190;BME280;22232;50.914;13.858;2023-02-18T10:15:48;97608.75;;;10.23;100.00
36190;BME280;22232;50.914;13.858;2023-02-18T10:18:31;97604.38;;;10.29;100.00
36190;BME280;22232;50.914;13.858;2023-02-18T10:21:09;97601.91;;;10.16;100.00
36190;BME280;22232;50.914;13.858;2023-02-18T10:23:46;97598.09;;;10.23;100.00
36190;BME280;22232;50.914;13.858;2023-02-18T10:26:16;97600.34;;;10.26;100.00
36190;BME280;22232;50.914;13.858;2023-02-18T10:28:45;97606.09;;;10.23;100.00
36190;BME280;22232;50.914;13.858;2023-02-18T10:31:21;97592.53;;;10.13;100.00
36190;BME280;22232;50.914;13.858;2023-02-18T10:36:36;97590.22;;;10.28;100.00
36190;BME280;22232;50.914;13.858;2023-02-18T10:39:20;97567.75;;;10.36;100.00
36190;BME280;22232;50.914;13.858;2023-02-18T10:42:31;97578.59;;;10.46;100.00
36190;BME280;22232;50.914;13.858;2023-02-18T10:50:44;97570.81;;;10.68;100.00
36190;BME280;22232;50.914;13.858;2023-02-18T10:53:34;97550.97;;;10.64;100.00
36190;BME280;22232;50.914;13.858;2023-02-18T10:56:02;97532.91;;;10.54;100.00
36190;BME280;22232;50.914;13.858;2023-02-18T10:58:33;97526.78;;;10.54;100.00
36190;BME280;22232;50.914;13.858;2023-02-18T11:01:04;97514.09;;;10.61;100.00
36190;BME280;22232;50.914;13.858;2023-02-18T11:03:44;97510.34;;;10.74;100.00
36190;BME280;22232;50.914;13.858;2023-02-18T11:06:20;97503.75;;;10.93;100.00
36190;BME280;22232;50.914;13.858;2023-02-18T11:08:48;97500.63;;;11.13;100.00
36190;BME280;22232;50.914;13.858;2023-02-18T11:11:42;97474.25;;;11.34;100.00
36190;BME280;22232;50.914;13.858;2023-02-18T11:14:20;97478.72;;;11.45;100.00
36190;BME280;22232;50.914;13.858;2023-02-18T11:17:32;97469.19;;;11.32;100.00
36190;BME280;22232;50.914;13.858;2023-02-18T11:20:02;97472.97;;;11.36;100.00
36190;BME280;22232;50.914;13.858;2023-02-18T11:22:33;97464.28;;;11.46;100.00
36190;BME280;22232;50.914;13.858;2023-02-18T11:25:15;97456.75;;;11.60;100.00
36190;BME280;22232;50.914;13.858;2023-02-18T11:27:56;97445.09;;;11.66;100.00
36190;BME280;22232;50.914;13.858;2023-02-18T11:30:37;97453.03;;;11.61;100.00
36190;BME280;22232;50.914;13.858;2023-02-18T11:35:35;97432.28;;;11.68;100.00
36190;BME280;22232;50.914;13.858;2023-02-18T11:38:17;97448.56;;;11.66;100.00
36190;BME280;22232;50.914;13.858;2023-02-18T11:41:00;97421.56;;;11.63;100.00
36190;BME280;22232;50.914;13.858;2023-02-18T11:43:30;97432.19;;;11.80;100.00
36190;BME280;22232;50.914;13.858;2023-02-18T11:46:10;97430.81;;;11.77;100.00
36190;BME280;22232;50.914;13.858;2023-02-18T11:48:38;97422.34;;;11.63;100.00
36190;BME280;22232;50.914;13.858;2023-02-18T11:51:22;97427.00;;;11.51;100.00
36190;BME280;22232;50.914;13.858;2023-02-18T11:54:05;97402.78;;;11.58;100.00
36190;BME280;22232;50.914;13.858;2023-02-18T11:56:56;97415.06;;;11.59;100.00
36190;BME280;22232;50.914;13.858;2023-02-18T11:59:25;97409.28;;;11.45;100.00
36190;BME280;22232;50.914;13.858;2023-02-18T12:04:42;97389.78;;;11.44;100.00
36190;BME280;22232;50.914;13.858;2023-02-18T12:07:22;97402.16;;;11.34;100.00
36190;BME280;22232;50.914;13.858;2023-02-18T12:10:19;97391.19;;;11.30;100.00
36190;BME280;22232;50.914;13.858;2023-02-18T12:12:50;97387.28;;;11.38;100.00
36190;BME280;22232;50.914;13.858;2023-02-18T12:15:31;97397.94;;;11.38;100.00
36190;BME280;22232;50.914;13.858;2023-02-18T12:21:12;97384.56;;;11.16;100.00
36190;BME280;22232;50.914;13.858;2023-02-18T12:23:51;97386.09;;;10.95;100.00
36190;BME280;22232;50.914;13.858;2023-02-18T12:32:48;97385.22;;;10.72;100.00
36190;BME280;22232;50.914;13.858;2023-02-18T12:38:02;97368.00;;;10.80;100.00
36190;BME280;22232;50.914;13.858;2023-02-18T12:54:46;97373.50;;;10.90;100.00
36190;BME280;22232;50.914;13.858;2023-02-18T13:00:44;97379.28;;;10.25;100.00
36190;BME280;22232;50.914;13.858;2023-02-18T13:03:49;97387.72;;;10.05;100.00
36190;BME280;22232;50.914;13.858;2023-02-18T13:10:03;97352.78;;;10.18;100.00
36190;BME280;22232;50.914;13.858;2023-02-18T13:15:21;97375.22;;;10.34;100.00
36190;BME280;22232;50.914;13.858;2023-02-18T13:17:50;97375.97;;;10.29;100.00
36190;BME280;22232;50.914;13.858;2023-02-18T13:20:32;97382.09;;;10.18;100.00
36190;BME280;22232;50.914;13.858;2023-02-18T13:23:02;97370.16;;;10.32;100.00
36190;BME280;22232;50.914;13.858;2023-02-18T13:25:36;97349.94;;;10.37;100.00
36190;BME280;22232;50.914;13.858;2023-02-18T13:33:51;97362.84;;;10.28;100.00
36190;BME280;22232;50.914;13.858;2023-02-18T13:36:46;97351.91;;;10.41;100.00
36190;BME280;22232;50.914;13.858;2023-02-18T13:39:18;97360.13;;;10.40;100.00
36190;BME280;22232;50.914;13.858;2023-02-18T13:41:49;97376.28;;;10.33;100.00
36190;BME280;22232;50.914;13.858;2023-02-18T13:46:54;97339.38;;;10.13;100.00
36190;BME280;22232;50.914;13.858;2023-02-18T13:49:25;97342.09;;;10.01;100.00
36190;BME280;22232;50.914;13.858;2023-02-18T13:51:59;97339.00;;;9.93;100.00
36190;BME280;22232;50.914;13.858;2023-02-18T13:54:31;97344.09;;;9.65;100.00
36190;BME280;22232;50.914;13.858;2023-02-18T13:57:13;97334.44;;;9.64;100.00
36190;BME280;22232;50.914;13.858;2023-02-18T13:59:47;97360.53;;;9.62;100.00
36190;BME280;22232;50.914;13.858;2023-02-18T14:04:49;97364.81;;;9.52;100.00
36190;BME280;22232;50.914;13.858;2023-02-18T14:09:53;97373.03;;;9.62;100.00
36190;BME280;22232;50.914;13.858;2023-02-18T14:20:43;97377.81;;;9.88;100.00
36190;BME280;22232;50.914;13.858;2023-02-18T14:26:15;97352.69;;;9.84;100.00
36190;BME280;22232;50.914;13.858;2023-02-18T14:28:53;97375.16;;;9.88;100.00
36190;BME280;22232;50.914;13.858;2023-02-18T14:31:32;97380.31;;;9.67;100.00
36190;BME280;22232;50.914;13.858;2023-02-18T14:34:34;97394.56;;;9.49;100.00
36190;BME280;22232;50.914;13.858;2023-02-18T14:42:55;97389.38;;;9.30;100.00
36190;BME280;22232;50.914;13.858;2023-02-18T14:51:07;97398.53;;;9.23;100.00
36190;BME280;22232;50.914;13.858;2023-02-18T14:53:42;97413.22;;;9.13;100.00
36190;BME280;22232;50.914;13.858;2023-02-18T14:56:14;97404.66;;;9.00;100.00
36190;BME280;22232;50.914;13.858;2023-02-18T14:58:47;97396.31;;;8.84;100.00
36190;BME280;22232;50.914;13.858;2023-02-18T15:01:20;97405.19;;;8.78;100.00
36190;BME280;22232;50.914;13.858;2023-02-18T15:03:49;97418.25;;;8.68;100.00
36190;BME280;22232;50.914;13.858;2023-02-18T15:09:02;97428.50;;;8.53;100.00
36190;BME280;22232;50.914;13.858;2023-02-18T15:11:36;97429.72;;;8.38;100.00
36190;BME280;22232;50.914;13.858;2023-02-18T15:14:13;97437.06;;;8.36;100.00
36190;BME280;22232;50.914;13.858;2023-02-18T15:16:44;97437.97;;;8.30;100.00
36190;BME280;22232;50.914;13.858;2023-02-18T15:19:14;97432.88;;;8.28;100.00